createdAt,value
2023-05-16T00:00:48.853Z,101235.44
2023-05-16T00:03:15.558Z,101246.56
2023-05-16T00:05:42.249Z,101244.63
2023-05-16T00:08:08.696Z,101238.69
2023-05-16T00:10:35.629Z,101243.41
2023-05-16T00:13:02.233Z,101235.56
2023-05-16T00:15:30.092Z,101255.00
2023-05-16T00:17:59.824Z,101248.97
2023-05-16T00:20:28.278Z,101249.03
2023-05-16T00:22:55.506Z,101246.66
2023-05-16T00:25:22.051Z,101251.44
2023-05-16T00:27:48.579Z,101256.19
2023-05-16T00:30:15.104Z,101256.56
2023-05-16T00:32:41.564Z,101259.34
2023-05-16T00:35:10.612Z,101262.50
2023-05-16T00:37:38.609Z,101260.97
2023-05-16T00:40:05.802Z,101256.28
2023-05-16T00:42:32.637Z,101265.06
2023-05-16T00:44:59.681Z,101250.78
2023-05-16T00:47:26.285Z,101270.63
2023-05-16T00:49:52.960Z,101274.63
2023-05-16T00:52:19.807Z,101265.91
2023-05-16T00:54:46.346Z,101269.91
2023-05-16T00:57:12.840Z,101265.16
2023-05-16T00:59:40.198Z,101277.88
2023-05-16T01:02:06.718Z,101272.31
2023-05-16T01:04:33.639Z,101276.63
2023-05-16T01:07:01.447Z,101266.34
2023-05-16T01:09:28.297Z,101272.72
2023-05-16T01:12:32.628Z,101272.34
2023-05-16T01:15:09.459Z,101285.47
2023-05-16T01:18:22.575Z,101291.44
2023-05-16T01:21:09.382Z,101286.66
2023-05-16T01:24:04.745Z,101301.72
2023-05-16T01:26:32.620Z,101314.06
2023-05-16T01:28:59.796Z,101305.69
2023-05-16T01:31:26.309Z,101302.53
2023-05-16T01:33:52.815Z,101313.63
2023-05-16T01:36:25.928Z,101312.84
2023-05-16T01:39:22.750Z,101310.84
2023-05-16T01:42:06.176Z,101321.56
2023-05-16T01:44:44.565Z,101329.91
2023-05-16T01:47:14.490Z,101323.16
2023-05-16T01:49:54.321Z,101331.09
2023-05-16T01:52:38.615Z,101326.69
2023-05-16T01:55:12.258Z,101336.22
2023-05-16T01:57:40.475Z,101329.47
2023-05-16T02:00:08.621Z,101335.44
2023-05-16T02:02:35.087Z,101337.00
2023-05-16T02:05:01.576Z,101343.75
2023-05-16T02:07:28.156Z,101333.47
2023-05-16T02:09:54.597Z,101345.72
2023-05-16T02:12:21.042Z,101346.94
2023-05-16T02:14:47.497Z,101340.56
2023-05-16T02:17:13.953Z,101350.09
2023-05-16T02:19:40.496Z,101347.72
2023-05-16T02:22:07.093Z,101343.75
2023-05-16T02:24:33.993Z,101352.03
2023-05-16T02:27:00.882Z,101354.06
2023-05-16T02:29:27.380Z,101350.09
2023-05-16T02:31:54.210Z,101348.47
2023-05-16T02:34:20.642Z,101342.16
2023-05-16T02:36:47.118Z,101362.78
2023-05-16T02:39:13.612Z,101354.06
2023-05-16T02:41:40.036Z,101355.66
2023-05-16T02:44:06.489Z,101363.59
2023-05-16T02:46:34.763Z,101363.97
2023-05-16T02:49:01.859Z,101368.31
2023-05-16T02:51:28.946Z,101375.47
2023-05-16T02:54:01.048Z,101376.25
2023-05-16T02:56:28.124Z,101374.69
2023-05-16T02:58:56.165Z,101382.59
2023-05-16T03:01:22.831Z,101379.41
2023-05-16T03:03:49.583Z,101388.94
2023-05-16T03:06:16.230Z,101387.34
2023-05-16T03:08:42.730Z,101395.63
2023-05-16T03:11:09.257Z,101396.03
2023-05-16T03:13:35.713Z,101399.97
2023-05-16T03:16:03.046Z,101401.53
2023-05-16T03:18:29.567Z,101399.94
2023-05-16T03:20:56.286Z,101405.09
2023-05-16T03:23:22.985Z,101413.41
2023-05-16T03:25:49.626Z,101418.56
2023-05-16T03:28:17.861Z,101414.63
2023-05-16T03:30:44.303Z,101415.00
2023-05-16T03:33:10.894Z,101418.13
2023-05-16T03:35:38.105Z,101412.19
2023-05-16T03:38:04.677Z,101415.38
2023-05-16T03:40:31.396Z,101418.44
2023-05-16T03:42:57.970Z,101416.81
2023-05-16T03:45:24.601Z,101427.94
2023-05-16T03:47:51.260Z,101427.41
2023-05-16T03:50:18.159Z,101442.84
2023-05-16T03:52:44.732Z,101437.66
2023-05-16T03:55:14.195Z,101436.81
2023-05-16T03:57:42.229Z,101447.09
2023-05-16T04:00:11.078Z,101442.38
2023-05-16T04:02:37.773Z,101451.88
2023-05-16T04:05:04.714Z,101445.84
2023-05-16T04:07:31.185Z,101461.22
2023-05-16T04:09:58.722Z,101461.22
2023-05-16T04:12:25.268Z,101459.97
2023-05-16T04:14:51.761Z,101464.25
2023-05-16T04:17:18.226Z,101472.13
2023-05-16T04:19:45.290Z,101473.31
2023-05-16T04:22:11.780Z,101468.13
2023-05-16T04:24:38.351Z,101478.38
2023-05-16T04:27:05.313Z,101479.91
2023-05-16T04:29:32.365Z,101485.44
2023-05-16T04:31:58.821Z,101489.00
2023-05-16T04:34:27.888Z,101492.09
2023-05-16T04:36:55.488Z,101492.88
2023-05-16T04:39:22.339Z,101505.91
2023-05-16T04:41:48.796Z,101502.72
2023-05-16T04:44:15.355Z,101502.72
2023-05-16T04:46:41.902Z,101516.25
2023-05-16T04:49:08.532Z,101509.88
2023-05-16T04:51:34.986Z,101516.63
2023-05-16T04:54:01.430Z,101521.72
2023-05-16T04:56:27.920Z,101518.19
2023-05-16T04:58:54.761Z,101520.97
2023-05-16T05:01:21.428Z,101527.31
2023-05-16T05:03:48.501Z,101523.66
2023-05-16T05:06:15.220Z,101528.81
2023-05-16T05:08:41.711Z,101525.69
2023-05-16T05:11:08.213Z,101532.47
2023-05-16T05:13:34.644Z,101537.97
2023-05-16T05:16:02.106Z,101542.38
2023-05-16T05:18:28.763Z,101538.03
2023-05-16T05:20:55.315Z,101539.66
2023-05-16T05:23:21.935Z,101545.25
2023-05-16T05:25:48.529Z,101545.25
2023-05-16T05:28:15.017Z,101547.97
2023-05-16T05:30:43.252Z,101548.06
2023-05-16T05:33:11.791Z,101553.97
2023-05-16T05:35:38.444Z,101556.84
2023-05-16T05:38:04.874Z,101554.97
2023-05-16T05:40:31.351Z,101559.75
2023-05-16T05:42:57.858Z,101572.81
2023-05-16T05:45:24.324Z,101566.19
2023-05-16T05:47:51.080Z,101569.28
2023-05-16T05:50:17.691Z,101570.53
2023-05-16T05:52:44.286Z,101578.09
2023-05-16T05:55:10.923Z,101570.97
2023-05-16T05:57:37.777Z,101578.59
2023-05-16T06:00:05.195Z,101575.06
2023-05-16T06:02:31.887Z,101589.00
2023-05-16T06:04:58.487Z,101582.25
2023-05-16T06:07:25.065Z,101586.34
2023-05-16T06:09:52.079Z,101580.78
2023-05-16T06:12:18.592Z,101584.38
2023-05-16T06:14:45.066Z,101587.25
2023-05-16T06:17:11.554Z,101585.72
2023-05-16T06:19:38.149Z,101587.78
2023-05-16T06:22:04.792Z,101600.94
2023-05-16T06:24:31.530Z,101587.81
2023-05-16T06:26:58.129Z,101589.44
2023-05-16T06:29:24.600Z,101591.50
2023-05-16T06:31:51.202Z,101598.28
2023-05-16T06:34:17.671Z,101595.13
2023-05-16T06:36:44.720Z,101595.59
2023-05-16T06:39:11.191Z,101602.38
2023-05-16T06:41:37.659Z,101602.38
2023-05-16T06:44:05.061Z,101602.03
2023-05-16T06:46:31.689Z,101608.78
2023-05-16T06:48:58.214Z,101604.84
2023-05-16T06:51:24.891Z,101592.97
2023-05-16T06:53:51.417Z,101591.81
2023-05-16T06:56:17.981Z,101582.34
2023-05-16T06:58:44.562Z,101589.09
2023-05-16T07:01:11.148Z,101591.09
2023-05-16T07:03:37.806Z,101591.47
2023-05-16T07:06:04.434Z,101591.53
2023-05-16T07:08:30.970Z,101602.66
2023-05-16T07:10:57.511Z,101598.28
2023-05-16T07:13:24.017Z,101597.13
2023-05-16T07:15:50.586Z,101598.72
2023-05-16T07:18:17.117Z,101609.44
2023-05-16T07:20:43.592Z,101593.16
2023-05-16T07:23:10.255Z,101605.84
2023-05-16T07:25:36.870Z,101596.72
2023-05-16T07:28:03.689Z,101587.59
2023-05-16T07:30:30.591Z,101598.31
2023-05-16T07:32:57.581Z,101597.91
2023-05-16T07:35:24.137Z,101597.09
2023-05-16T07:37:50.645Z,101601.47
2023-05-16T07:40:18.562Z,101606.25
2023-05-16T07:42:46.066Z,101605.06
2023-05-16T07:45:12.626Z,101608.63
2023-05-16T07:47:39.192Z,101600.28
2023-05-16T07:50:06.027Z,101601.88
2023-05-16T07:52:32.509Z,101611.03
2023-05-16T07:54:58.976Z,101611.41
2023-05-16T07:57:25.728Z,101609.03
2023-05-16T07:59:52.507Z,101613.78
2023-05-16T08:02:19.425Z,101617.38
2023-05-16T08:04:46.966Z,101615.75
2023-05-16T08:07:13.626Z,101617.34
2023-05-16T08:09:40.243Z,101618.56
2023-05-16T08:12:07.199Z,101614.94
2023-05-16T08:14:33.910Z,101613.34
2023-05-16T08:17:00.897Z,101615.69
2023-05-16T08:19:27.905Z,101608.47
2023-05-16T08:21:54.988Z,101621.94
2023-05-16T08:24:21.766Z,101615.09
2023-05-16T08:26:48.322Z,101619.06
2023-05-16T08:29:14.953Z,101633.03
2023-05-16T08:31:41.584Z,101625.09
2023-05-16T08:34:09.410Z,101619.56
2023-05-16T08:36:37.643Z,101618.06
2023-05-16T08:39:04.955Z,101620.44
2023-05-16T08:41:31.670Z,101620.47
2023-05-16T08:43:58.325Z,101620.09
2023-05-16T08:46:26.548Z,101621.25
2023-05-16T08:48:54.311Z,101620.88
2023-05-16T08:51:21.510Z,101616.06
2023-05-16T08:53:57.730Z,101618.06
2023-05-16T08:56:25.173Z,101622.41
2023-05-16T08:58:55.178Z,101622.75
2023-05-16T09:01:23.047Z,101623.88
2023-05-16T09:03:51.072Z,101627.44
2023-05-16T09:06:17.903Z,101624.19
2023-05-16T09:08:44.641Z,101632.06
2023-05-16T09:11:11.297Z,101623.66
2023-05-16T09:13:39.624Z,101623.94
2023-05-16T09:16:14.785Z,101620.72
2023-05-16T09:18:44.873Z,101621.91
2023-05-16T09:21:12.298Z,101613.84
2023-05-16T09:23:39.264Z,101623.34
2023-05-16T09:26:08.041Z,101618.31
2023-05-16T09:28:37.935Z,101619.47
2023-05-16T09:31:04.584Z,101622.63
2023-05-16T09:33:31.225Z,101620.78
2023-05-16T09:35:59.821Z,101619.19
2023-05-16T09:38:27.698Z,101620.72
2023-05-16T09:40:55.508Z,101625.03
2023-05-16T09:43:25.331Z,101623.69
2023-05-16T09:45:52.463Z,101621.53
2023-05-16T09:48:19.361Z,101623.06
2023-05-16T09:50:52.911Z,101618.09
2023-05-16T09:53:30.758Z,101626.69
2023-05-16T09:56:08.431Z,101609.81
2023-05-16T09:58:39.428Z,101603.31
2023-05-16T10:01:07.285Z,101621.97
2023-05-16T10:03:42.259Z,101614.13
2023-05-16T10:06:09.352Z,101611.31
2023-05-16T10:08:37.032Z,101615.97
2023-05-16T10:11:05.826Z,101605.00
2023-05-16T10:13:36.901Z,101603.63
2023-05-16T10:16:10.141Z,101603.47
2023-05-16T10:18:38.566Z,101611.06
2023-05-16T10:21:10.419Z,101611.72
2023-05-16T10:23:41.340Z,101611.53
2023-05-16T10:26:09.309Z,101615.66
2023-05-16T10:28:36.829Z,101611.38
2023-05-16T10:31:04.713Z,101615.63
2023-05-16T10:33:31.427Z,101616.38
2023-05-16T10:35:58.874Z,101613.19
2023-05-16T10:38:28.386Z,101599.00
2023-05-16T10:40:55.753Z,101607.69
2023-05-16T10:43:26.864Z,101606.97
2023-05-16T10:46:03.896Z,101605.84
2023-05-16T10:48:38.927Z,101605.53
2023-05-16T10:51:23.751Z,101599.75
2023-05-16T10:53:54.741Z,101594.66
2023-05-16T10:56:26.505Z,101587.16
2023-05-16T10:58:55.252Z,101596.03
2023-05-16T11:01:29.505Z,101591.75
2023-05-16T11:03:59.238Z,101595.22
2023-05-16T11:06:29.952Z,101586.22
2023-05-16T11:09:05.639Z,101589.16
2023-05-16T11:11:49.100Z,101583.84
2023-05-16T11:14:49.950Z,101598.47
2023-05-16T11:17:21.673Z,101591.69
2023-05-16T11:19:59.044Z,101603.13
2023-05-16T11:22:29.645Z,101604.81
2023-05-16T11:25:01.904Z,101607.13
2023-05-16T11:27:37.311Z,101607.63
2023-05-16T11:30:06.654Z,101604.75
2023-05-16T11:32:38.183Z,101601.91
2023-05-16T11:35:08.990Z,101609.06
2023-05-16T11:37:45.059Z,101606.84
2023-05-16T11:40:13.611Z,101593.75
2023-05-16T11:42:42.534Z,101601.31
2023-05-16T11:45:16.651Z,101598.34
2023-05-16T11:47:45.677Z,101599.34
2023-05-16T11:50:25.216Z,101603.69
2023-05-16T11:52:54.336Z,101588.94
2023-05-16T11:55:39.578Z,101602.47
2023-05-16T11:58:08.439Z,101587.84
2023-05-16T12:00:34.993Z,101589.78
2023-05-16T12:03:05.022Z,101592.31
2023-05-16T12:05:34.097Z,101599.00
2023-05-16T12:08:02.655Z,101602.59
2023-05-16T12:10:31.754Z,101602.16
2023-05-16T12:12:58.638Z,101595.69
2023-05-16T12:15:25.722Z,101585.41
2023-05-16T12:17:53.030Z,101597.41
2023-05-16T12:20:19.800Z,101609.88
2023-05-16T12:22:47.130Z,101612.44
2023-05-16T12:25:27.307Z,101609.25
2023-05-16T12:27:59.816Z,101607.19
2023-05-16T12:30:28.392Z,101597.53
2023-05-16T12:32:58.732Z,101600.25
2023-05-16T12:35:26.321Z,101590.72
2023-05-16T12:37:53.350Z,101601.44
2023-05-16T12:40:20.767Z,101593.75
2023-05-16T12:43:12.769Z,101595.59
2023-05-16T12:45:39.286Z,101590.91
2023-05-16T12:48:08.719Z,101599.34
2023-05-16T12:50:35.250Z,101590.94
2023-05-16T12:53:01.800Z,101586.19
2023-05-16T12:55:28.349Z,101587.59
2023-05-16T12:57:57.628Z,101590.25
2023-05-16T13:00:24.627Z,101590.28
2023-05-16T13:02:52.372Z,101593.41
2023-05-16T13:05:20.524Z,101592.13
2023-05-16T13:07:47.165Z,101596.09
2023-05-16T13:10:13.877Z,101594.97
2023-05-16T13:12:41.285Z,101595.16
2023-05-16T13:15:09.874Z,101596.44
2023-05-16T13:17:37.408Z,101602.91
2023-05-16T13:20:15.144Z,101596.53
2023-05-16T13:22:43.734Z,101598.59
2023-05-16T13:25:11.109Z,101606.91
2023-05-16T13:27:37.941Z,101608.56
2023-05-16T13:30:05.012Z,101608.22
2023-05-16T13:32:31.616Z,101601.84
2023-05-16T13:34:58.280Z,101593.06
2023-05-16T13:37:24.813Z,101596.44
2023-05-16T13:39:51.436Z,101598.44
2023-05-16T13:42:18.070Z,101602.41
2023-05-16T13:44:44.940Z,101600.19
2023-05-16T13:47:11.813Z,101600.38
2023-05-16T13:49:38.980Z,101600.91
2023-05-16T13:52:06.557Z,101607.44
2023-05-16T13:54:33.644Z,101599.66
2023-05-16T13:57:00.795Z,101607.25
2023-05-16T13:59:44.699Z,101615.25
2023-05-16T14:02:12.525Z,101610.41
2023-05-16T14:04:39.333Z,101615.88
2023-05-16T14:07:05.854Z,101630.31
2023-05-16T14:09:35.155Z,101623.78
2023-05-16T14:12:04.300Z,101632.34
2023-05-16T14:14:30.854Z,101632.22
2023-05-16T14:16:58.517Z,101627.28
2023-05-16T14:19:25.386Z,101626.16
2023-05-16T14:21:52.138Z,101624.91
2023-05-16T14:24:18.802Z,101627.69
2023-05-16T14:26:45.406Z,101632.28
2023-05-16T14:29:12.938Z,101626.88
2023-05-16T14:31:41.077Z,101642.97
2023-05-16T14:34:07.602Z,101641.50
2023-05-16T14:36:34.151Z,101646.06
2023-05-16T14:39:00.732Z,101646.59
2023-05-16T14:41:27.345Z,101649.44
2023-05-16T14:43:55.386Z,101650.56
2023-05-16T14:46:21.958Z,101641.91
2023-05-16T14:48:48.579Z,101647.59
2023-05-16T14:51:15.396Z,101647.81
2023-05-16T14:53:41.967Z,101657.47
2023-05-16T14:56:08.514Z,101659.50
2023-05-16T14:58:35.083Z,101665.22
2023-05-16T15:01:01.882Z,101666.59
2023-05-16T15:03:28.496Z,101665.88
2023-05-16T15:05:55.097Z,101677.66
2023-05-16T15:08:22.302Z,101672.56
2023-05-16T15:10:48.830Z,101663.38
2023-05-16T15:13:15.338Z,101662.91
2023-05-16T15:15:42.210Z,101677.63
2023-05-16T15:18:10.605Z,101683.59
2023-05-16T15:20:37.700Z,101682.44
2023-05-16T15:23:04.262Z,101689.38
2023-05-16T15:25:31.085Z,101684.34
2023-05-16T15:27:57.759Z,101692.31
2023-05-16T15:30:24.371Z,101689.50
2023-05-16T15:32:51.186Z,101693.88
2023-05-16T15:35:18.085Z,101693.88
2023-05-16T15:37:44.580Z,101696.84
2023-05-16T15:40:11.703Z,101683.47
2023-05-16T15:42:38.229Z,101681.97
2023-05-16T15:45:05.145Z,101695.75
2023-05-16T15:47:32.085Z,101692.81
2023-05-16T15:49:58.670Z,101690.72
2023-05-16T15:52:25.232Z,101694.56
2023-05-16T15:54:51.764Z,101698.66
2023-05-16T15:57:19.129Z,101701.94
2023-05-16T15:59:50.337Z,101691.44
2023-05-16T16:02:16.986Z,101697.84
2023-05-16T16:04:43.569Z,101693.84
2023-05-16T16:07:10.838Z,101697.91
2023-05-16T16:09:37.344Z,101704.22
2023-05-16T16:12:04.038Z,101701.03
2023-05-16T16:14:30.606Z,101697.44
2023-05-16T16:16:57.261Z,101698.81
2023-05-16T16:19:24.014Z,101700.00
2023-05-16T16:21:50.604Z,101710.28
2023-05-16T16:24:17.318Z,101706.22
2023-05-16T16:26:44.824Z,101713.16
2023-05-16T16:29:11.310Z,101711.81
2023-05-16T16:31:38.016Z,101708.75
2023-05-16T16:34:04.752Z,101720.19
2023-05-16T16:36:32.322Z,101729.13
2023-05-16T16:38:59.523Z,101725.69
2023-05-16T16:41:26.072Z,101725.00
2023-05-16T16:43:52.929Z,101729.97
2023-05-16T16:46:19.522Z,101728.41
2023-05-16T16:48:46.270Z,101736.19
2023-05-16T16:51:12.992Z,101743.44
2023-05-16T16:53:40.928Z,101735.72
2023-05-16T16:56:07.545Z,101741.34
2023-05-16T16:58:34.080Z,101732.69
2023-05-16T17:01:00.642Z,101738.44
2023-05-16T17:03:27.362Z,101738.06
2023-05-16T17:05:53.899Z,101739.81
2023-05-16T17:08:20.506Z,101747.06
2023-05-16T17:10:47.368Z,101741.50
2023-05-16T17:13:14.813Z,101747.22
2023-05-16T17:15:41.478Z,101751.97
2023-05-16T17:18:08.289Z,101748.81
2023-05-16T17:20:35.982Z,101758.06
2023-05-16T17:23:03.108Z,101762.16
2023-05-16T17:25:29.958Z,101762.63
2023-05-16T17:27:56.933Z,101756.28
2023-05-16T17:30:23.506Z,101753.09
2023-05-16T17:32:50.100Z,101755.53
2023-05-16T17:35:16.779Z,101764.66
2023-05-16T17:37:43.346Z,101767.88
2023-05-16T17:40:12.821Z,101770.25
2023-05-16T17:42:39.580Z,101765.13
2023-05-16T17:45:14.096Z,101765.91
2023-05-16T17:47:41.074Z,101772.34
2023-05-16T17:50:09.952Z,101773.56
2023-05-16T17:52:37.934Z,101769.25
2023-05-16T17:55:06.224Z,101774.41
2023-05-16T17:57:34.339Z,101771.25
2023-05-16T18:00:01.647Z,101774.78
2023-05-16T18:02:28.386Z,101783.56
2023-05-16T18:04:55.851Z,101777.66
2023-05-16T18:07:22.735Z,101784.41
2023-05-16T18:09:49.342Z,101781.25
2023-05-16T18:12:15.911Z,101790.44
2023-05-16T18:14:45.127Z,101793.22
2023-05-16T18:17:13.390Z,101787.69
2023-05-16T18:19:40.149Z,101796.47
2023-05-16T18:22:08.612Z,101796.91
2023-05-16T18:24:35.234Z,101792.50
2023-05-16T18:27:02.960Z,101790.16
2023-05-16T18:29:30.148Z,101793.34
2023-05-16T18:31:57.133Z,101797.38
2023-05-16T18:34:23.857Z,101797.75
2023-05-16T18:36:50.532Z,101805.31
2023-05-16T18:39:18.814Z,101800.56
2023-05-16T18:41:46.714Z,101802.53
2023-05-16T18:44:13.324Z,101816.53
2023-05-16T18:46:46.799Z,101805.75
2023-05-16T18:49:14.153Z,101810.53
2023-05-16T18:51:41.107Z,101808.53
2023-05-16T18:54:07.685Z,101812.13
2023-05-16T18:56:34.416Z,101819.34
2023-05-16T18:59:01.013Z,101814.97
2023-05-16T19:01:30.460Z,101818.53
2023-05-16T19:03:57.155Z,101823.34
2023-05-16T19:06:23.937Z,101822.94
2023-05-16T19:08:50.455Z,101820.97
2023-05-16T19:11:17.932Z,101815.00
2023-05-16T19:13:45.630Z,101818.19
2023-05-16T19:16:12.327Z,101816.22
2023-05-16T19:18:39.071Z,101828.13
2023-05-16T19:21:07.757Z,101822.19
2023-05-16T19:23:34.373Z,101818.59
2023-05-16T19:26:04.674Z,101825.34
2023-05-16T19:28:31.299Z,101828.56
2023-05-16T19:30:58.193Z,101837.72
2023-05-16T19:33:24.825Z,101834.13
2023-05-16T19:35:52.863Z,101829.38
2023-05-16T19:38:22.896Z,101840.91
2023-05-16T19:40:49.429Z,101843.31
2023-05-16T19:43:15.967Z,101840.50
2023-05-16T19:45:42.970Z,101845.28
2023-05-16T19:48:09.641Z,101840.50
2023-05-16T19:50:36.655Z,101847.25
2023-05-16T19:53:04.260Z,101838.53
2023-05-16T19:55:31.453Z,101850.84
2023-05-16T19:57:58.304Z,101844.06
2023-05-16T20:00:24.965Z,101850.03
2023-05-16T20:02:53.124Z,101850.03
2023-05-16T20:05:22.892Z,101857.19
2023-05-16T20:07:50.010Z,101850.00
2023-05-16T20:10:17.346Z,101857.59
2023-05-16T20:12:44.766Z,101861.47
2023-05-16T20:15:12.033Z,101864.66
2023-05-16T20:17:39.429Z,101863.84
2023-05-16T20:20:10.761Z,101872.56
2023-05-16T20:22:41.537Z,101866.56
2023-05-16T20:25:09.892Z,101865.78
2023-05-16T20:27:36.806Z,101874.88
2023-05-16T20:30:04.952Z,101868.88
2023-05-16T20:32:31.541Z,101882.38
2023-05-16T20:34:58.174Z,101879.22
2023-05-16T20:37:26.623Z,101871.63
2023-05-16T20:39:54.250Z,101880.78
2023-05-16T20:42:22.905Z,101888.63
2023-05-16T20:44:50.537Z,101885.38
2023-05-16T20:47:17.675Z,101884.97
2023-05-16T20:49:48.562Z,101887.66
2023-05-16T20:52:15.077Z,101881.34
2023-05-16T20:54:41.907Z,101882.91
2023-05-16T20:57:08.485Z,101878.94
2023-05-16T20:59:35.052Z,101880.53
2023-05-16T21:02:01.566Z,101883.75
2023-05-16T21:04:28.215Z,101873.38
2023-05-16T21:06:54.840Z,101888.50
2023-05-16T21:09:21.346Z,101876.59
2023-05-16T21:11:47.965Z,101883.78
2023-05-16T21:14:14.527Z,101885.78
2023-05-16T21:16:41.061Z,101880.66
2023-05-16T21:19:07.863Z,101883.00
2023-05-16T21:21:34.483Z,101881.44
2023-05-16T21:24:01.533Z,101889.81
2023-05-16T21:26:33.859Z,101885.41
2023-05-16T21:29:00.451Z,101884.59
2023-05-16T21:31:27.091Z,101884.53
2023-05-16T21:33:53.705Z,101892.44
2023-05-16T21:36:28.904Z,101885.22
2023-05-16T21:38:55.416Z,101899.50
2023-05-16T21:41:22.347Z,101905.00
2023-05-16T21:43:51.061Z,101891.81
2023-05-16T21:46:17.563Z,101895.34
2023-05-16T21:48:44.327Z,101896.09
2023-05-16T21:51:11.044Z,101902.38
2023-05-16T21:53:38.333Z,101902.72
2023-05-16T21:56:06.136Z,101903.81
2023-05-16T21:58:32.685Z,101907.28
2023-05-16T22:00:59.183Z,101906.41
2023-05-16T22:03:25.901Z,101911.44
2023-05-16T22:05:58.266Z,101910.66
2023-05-16T22:08:33.684Z,101906.63
2023-05-16T22:11:00.788Z,101912.88
2023-05-16T22:13:27.282Z,101920.75
2023-05-16T22:16:03.975Z,101919.03
2023-05-16T22:18:31.922Z,101913.00
2023-05-16T22:20:58.951Z,101903.69
2023-05-16T22:23:25.650Z,101909.59
2023-05-16T22:25:52.105Z,101908.31
2023-05-16T22:28:18.569Z,101910.56
2023-05-16T22:30:45.042Z,101912.06
2023-05-16T22:33:11.630Z,101909.13
2023-05-16T22:35:38.233Z,101914.22
2023-05-16T22:38:05.106Z,101914.53
2023-05-16T22:40:31.659Z,101911.66
2023-05-16T22:42:58.144Z,101906.03
2023-05-16T22:45:24.613Z,101909.94
2023-05-16T22:47:51.327Z,101919.81
2023-05-16T22:50:17.861Z,101919.34
2023-05-16T22:52:44.381Z,101918.03
2023-05-16T22:55:11.180Z,101915.59
2023-05-16T22:57:37.643Z,101929.50
2023-05-16T23:00:04.708Z,101927.28
2023-05-16T23:02:31.763Z,101930.84
2023-05-16T23:04:58.480Z,101935.22
2023-05-16T23:07:25.340Z,101926.06
2023-05-16T23:09:51.869Z,101933.09
2023-05-16T23:12:21.017Z,101930.31
2023-05-16T23:14:47.782Z,101938.97
2023-05-16T23:17:14.885Z,101935.00
2023-05-16T23:19:44.483Z,101940.53
2023-05-16T23:22:35.597Z,101941.69
2023-05-16T23:25:02.164Z,101934.63
2023-05-16T23:27:28.702Z,101938.91
2023-05-16T23:29:55.283Z,101944.44
2023-05-16T23:32:21.966Z,101942.81
2023-05-16T23:34:48.540Z,101945.88
2023-05-16T23:37:15.721Z,101939.78
2023-05-16T23:39:42.625Z,101944.81
2023-05-16T23:42:09.152Z,101934.81
2023-05-16T23:44:35.723Z,101940.63
2023-05-16T23:47:02.854Z,101952.00
2023-05-16T23:49:29.373Z,101949.56
2023-05-16T23:51:58.185Z,101955.03
2023-05-16T23:54:27.814Z,101954.94
2023-05-16T23:56:54.306Z,101965.22
2023-05-16T23:59:20.818Z,101954.03
